sensor_id;sensor_type;location;lat;lon;timestamp;temperature;humidity
20459;DHT22;10388;52.314;7.938;2023-02-01T00:01:58;3.70;99.90
20459;DHT22;10388;52.314;7.938;2023-02-01T00:04:30;3.70;99.90
20459;DHT22;10388;52.314;7.938;2023-02-01T00:07:01;3.70;99.90
20459;DHT22;10388;52.314;7.938;2023-02-01T00:09:31;3.80;99.90
20459;DHT22;10388;52.314;7.938;2023-02-01T00:12:02;3.80;99.90
20459;DHT22;10388;52.314;7.938;2023-02-01T00:14:33;3.70;99.90
20459;DHT22;10388;52.314;7.938;2023-02-01T00:17:08;3.70;99.90
20459;DHT22;10388;52.314;7.938;2023-02-01T00:19:39;3.80;99.90
20459;DHT22;10388;52.314;7.938;2023-02-01T00:22:09;3.80;99.90
20459;DHT22;10388;52.314;7.938;2023-02-01T00:24:40;3.80;99.90
20459;DHT22;10388;52.314;7.938;2023-02-01T00:27:10;3.80;99.90
20459;DHT22;10388;52.314;7.938;2023-02-01T00:29:41;3.80;99.90
20459;DHT22;10388;52.314;7.938;2023-02-01T00:32:11;3.80;99.90
20459;DHT22;10388;52.314;7.938;2023-02-01T00:34:42;3.90;99.90
20459;DHT22;10388;52.314;7.938;2023-02-01T00:37:12;3.90;99.90
20459;DHT22;10388;52.314;7.938;2023-02-01T00:39:43;3.80;99.90
20459;DHT22;10388;52.314;7.938;2023-02-01T00:42:13;3.90;99.90
20459;DHT22;10388;52.314;7.938;2023-02-01T00:44:44;3.90;99.90
20459;DHT22;10388;52.314;7.938;2023-02-01T00:47:15;3.90;99.90
20459;DHT22;10388;52.314;7.938;2023-02-01T00:49:45;3.90;99.90
20459;DHT22;10388;52.314;7.938;2023-02-01T00:52:15;3.90;99.90
20459;DHT22;10388;52.314;7.938;2023-02-01T00:54:46;4.00;99.90
20459;DHT22;10388;52.314;7.938;2023-02-01T00:57:16;3.90;99.90
20459;DHT22;10388;52.314;7.938;2023-02-01T00:59:47;3.90;99.90
20459;DHT22;10388;52.314;7.938;2023-02-01T04:30:46;4.50;99.90
20459;DHT22;10388;52.314;7.938;2023-02-01T04:33:16;4.50;99.90
20459;DHT22;10388;52.314;7.938;2023-02-01T04:35:47;4.50;99.90
20459;DHT22;10388;52.314;7.938;2023-02-01T04:38:18;4.50;99.90
20459;DHT22;10388;52.314;7.938;2023-02-01T04:40:49;4.50;99.90
20459;DHT22;10388;52.314;7.938;2023-02-01T04:43:20;4.40;99.90
20459;DHT22;10388;52.314;7.938;2023-02-01T04:45:51;4.40;99.90
20459;DHT22;10388;52.314;7.938;2023-02-01T04:48:22;4.50;99.90
20459;DHT22;10388;52.314;7.938;2023-02-01T04:50:55;4.50;99.90
20459;DHT22;10388;52.314;7.938;2023-02-01T04:53:26;4.40;99.90
20459;DHT22;10388;52.314;7.938;2023-02-01T04:55:57;4.40;99.90
20459;DHT22;10388;52.314;7.938;2023-02-01T04:58:28;4.40;99.90
20459;DHT22;10388;52.314;7.938;2023-02-01T05:01:05;4.40;99.90
20459;DHT22;10388;52.314;7.938;2023-02-01T05:03:36;4.40;99.90
20459;DHT22;10388;52.314;7.938;2023-02-01T05:06:07;4.40;99.90
20459;DHT22;10388;52.314;7.938;2023-02-01T05:08:38;4.40;99.90
20459;DHT22;10388;52.314;7.938;2023-02-01T05:11:08;4.40;99.90
20459;DHT22;10388;52.314;7.938;2023-02-01T05:13:59;4.40;99.90
20459;DHT22;10388;52.314;7.938;2023-02-01T05:16:30;4.40;99.90
20459;DHT22;10388;52.314;7.938;2023-02-01T05:19:01;4.30;99.90
20459;DHT22;10388;52.314;7.938;2023-02-01T05:21:31;4.40;99.90
20459;DHT22;10388;52.314;7.938;2023-02-01T05:24:02;4.30;99.90
20459;DHT22;10388;52.314;7.938;2023-02-01T05:26:43;4.30;99.90
20459;DHT22;10388;52.314;7.938;2023-02-01T05:29:15;4.30;99.90
20459;DHT22;10388;52.314;7.938;2023-02-01T05:31:46;4.30;99.90
20459;DHT22;10388;52.314;7.938;2023-02-01T05:34:17;4.30;99.90
20459;DHT22;10388;52.314;7.938;2023-02-01T05:36:48;4.30;99.90
20459;DHT22;10388;52.314;7.938;2023-02-01T05:39:18;4.30;99.90
20459;DHT22;10388;52.314;7.938;2023-02-01T05:41:49;4.30;99.90
20459;DHT22;10388;52.314;7.938;2023-02-01T05:44:19;4.30;99.90
20459;DHT22;10388;52.314;7.938;2023-02-01T05:46:50;4.40;99.90
20459;DHT22;10388;52.314;7.938;2023-02-01T05:49:22;4.30;99.90
20459;DHT22;10388;52.314;7.938;2023-02-01T05:51:53;4.30;99.90
20459;DHT22;10388;52.314;7.938;2023-02-01T05:54:23;4.30;99.90
20459;DHT22;10388;52.314;7.938;2023-02-01T05:56:54;4.40;99.90
20459;DHT22;10388;52.314;7.938;2023-02-01T05:59:25;4.40;99.90
20459;DHT22;10388;52.314;7.938;2023-02-01T06:01:55;4.40;99.90
20459;DHT22;10388;52.314;7.938;2023-02-01T06:04:26;4.40;99.90
20459;DHT22;10388;52.314;7.938;2023-02-01T06:06:56;4.40;99.90
20459;DHT22;10388;52.314;7.938;2023-02-01T06:09:27;4.40;99.90
20459;DHT22;10388;52.314;7.938;2023-02-01T06:11:58;4.40;99.90
20459;DHT22;10388;52.314;7.938;2023-02-01T06:14:29;4.40;99.90
20459;DHT22;10388;52.314;7.938;2023-02-01T06:17:00;4.40;99.90
20459;DHT22;10388;52.314;7.938;2023-02-01T06:19:30;4.40;99.90
20459;DHT22;10388;52.314;7.938;2023-02-01T06:22:01;4.40;99.90
20459;DHT22;10388;52.314;7.938;2023-02-01T06:24:32;4.40;99.90
20459;DHT22;10388;52.314;7.938;2023-02-01T06:27:02;4.40;99.90
20459;DHT22;10388;52.314;7.938;2023-02-01T06:29:33;4.50;99.90
20459;DHT22;10388;52.314;7.938;2023-02-01T06:32:03;4.50;99.90
20459;DHT22;10388;52.314;7.938;2023-02-01T06:34:34;4.50;99.90
20459;DHT22;10388;52.314;7.938;2023-02-01T06:37:04;4.50;99.90
20459;DHT22;10388;52.314;7.938;2023-02-01T06:39:35;4.50;99.90
20459;DHT22;10388;52.314;7.938;2023-02-01T06:42:06;4.60;99.90
20459;DHT22;10388;52.314;7.938;2023-02-01T06:44:36;4.60;99.90
20459;DHT22;10388;52.314;7.938;2023-02-01T06:47:07;4.60;99.90
20459;DHT22;10388;52.314;7.938;2023-02-01T06:49:37;4.70;99.90
20459;DHT22;10388;52.314;7.938;2023-02-01T06:52:08;4.70;99.90
20459;DHT22;10388;52.314;7.938;2023-02-01T06:54:38;4.70;99.90
20459;DHT22;10388;52.314;7.938;2023-02-01T06:57:09;4.70;99.90
20459;DHT22;10388;52.314;7.938;2023-02-01T06:59:39;4.70;99.90
20459;DHT22;10388;52.314;7.938;2023-02-01T07:02:11;4.80;99.90
20459;DHT22;10388;52.314;7.938;2023-02-01T07:04:42;4.80;99.90
20459;DHT22;10388;52.314;7.938;2023-02-01T07:07:12;4.90;99.90
20459;DHT22;10388;52.314;7.938;2023-02-01T07:09:43;5.00;99.90
20459;DHT22;10388;52.314;7.938;2023-02-01T07:12:14;5.00;99.90
20459;DHT22;10388;52.314;7.938;2023-02-01T07:14:44;5.00;99.90
20459;DHT22;10388;52.314;7.938;2023-02-01T07:17:15;5.00;99.90
20459;DHT22;10388;52.314;7.938;2023-02-01T07:19:45;5.10;99.90
20459;DHT22;10388;52.314;7.938;2023-02-01T07:22:17;5.10;99.90
20459;DHT22;10388;52.314;7.938;2023-02-01T07:24:47;5.20;99.90
20459;DHT22;10388;52.314;7.938;2023-02-01T07:27:18;5.20;99.90
20459;DHT22;10388;52.314;7.938;2023-02-01T07:29:50;5.20;99.90
20459;DHT22;10388;52.314;7.938;2023-02-01T07:32:20;5.30;99.90
20459;DHT22;10388;52.314;7.938;2023-02-01T07:34:51;5.30;99.90
20459;DHT22;10388;52.314;7.938;2023-02-01T07:37:21;5.30;99.90
20459;DHT22;10388;52.314;7.938;2023-02-01T07:39:54;5.30;99.90
20459;DHT22;10388;52.314;7.938;2023-02-01T07:42:24;5.30;99.90
20459;DHT22;10388;52.314;7.938;2023-02-01T07:44:55;5.30;99.90
20459;DHT22;10388;52.314;7.938;2023-02-01T07:47:25;5.40;99.90
20459;DHT22;10388;52.314;7.938;2023-02-01T07:49:56;5.30;99.90
20459;DHT22;10388;52.314;7.938;2023-02-01T07:52:29;5.30;99.90
20459;DHT22;10388;52.314;7.938;2023-02-01T07:55:00;5.30;99.90
20459;DHT22;10388;52.314;7.938;2023-02-01T07:57:30;5.40;99.90
20459;DHT22;10388;52.314;7.938;2023-02-01T08:00:01;5.40;99.90
20459;DHT22;10388;52.314;7.938;2023-02-01T08:02:50;5.40;99.90
20459;DHT22;10388;52.314;7.938;2023-02-01T08:05:21;5.50;99.90
20459;DHT22;10388;52.314;7.938;2023-02-01T08:07:52;5.50;99.90
20459;DHT22;10388;52.314;7.938;2023-02-01T08:10:22;5.50;99.90
20459;DHT22;10388;52.314;7.938;2023-02-01T08:12:58;5.40;99.90
20459;DHT22;10388;52.314;7.938;2023-02-01T08:15:30;5.40;99.90
20459;DHT22;10388;52.314;7.938;2023-02-01T08:18:00;5.40;99.90
20459;DHT22;10388;52.314;7.938;2023-02-01T08:20:33;5.50;99.90
20459;DHT22;10388;52.314;7.938;2023-02-01T08:23:08;5.50;99.90
20459;DHT22;10388;52.314;7.938;2023-02-01T08:25:39;5.50;99.90
20459;DHT22;10388;52.314;7.938;2023-02-01T08:28:10;5.50;99.90
20459;DHT22;10388;52.314;7.938;2023-02-01T08:30:40;5.50;99.90
20459;DHT22;10388;52.314;7.938;2023-02-01T08:33:12;5.50;99.90
20459;DHT22;10388;52.314;7.938;2023-02-01T08:35:43;5.50;99.90
20459;DHT22;10388;52.314;7.938;2023-02-01T08:38:14;5.60;99.90
20459;DHT22;10388;52.314;7.938;2023-02-01T08:40:44;5.60;99.90
20459;DHT22;10388;52.314;7.938;2023-02-01T08:43:16;5.70;99.90
20459;DHT22;10388;52.314;7.938;2023-02-01T08:45:47;5.70;99.90
20459;DHT22;10388;52.314;7.938;2023-02-01T08:48:17;5.70;99.90
20459;DHT22;10388;52.314;7.938;2023-02-01T08:50:48;5.80;99.90
20459;DHT22;10388;52.314;7.938;2023-02-01T08:53:18;5.80;99.90
20459;DHT22;10388;52.314;7.938;2023-02-01T08:55:49;5.80;99.90
20459;DHT22;10388;52.314;7.938;2023-02-01T08:58:19;5.90;99.90
20459;DHT22;10388;52.314;7.938;2023-02-01T09:00:51;5.80;99.90
20459;DHT22;10388;52.314;7.938;2023-02-01T09:03:22;5.80;99.90
20459;DHT22;10388;52.314;7.938;2023-02-01T09:06:00;5.80;99.90
20459;DHT22;10388;52.314;7.938;2023-02-01T09:08:32;5.90;99.90
20459;DHT22;10388;52.314;7.938;2023-02-01T09:11:06;5.90;99.90
20459;DHT22;10388;52.314;7.938;2023-02-01T09:13:36;5.90;99.90
20459;DHT22;10388;52.314;7.938;2023-02-01T09:16:07;6.00;99.90
20459;DHT22;10388;52.314;7.938;2023-02-01T09:18:37;6.00;99.90
20459;DHT22;10388;52.314;7.938;2023-02-01T09:21:08;6.00;99.90
20459;DHT22;10388;52.314;7.938;2023-02-01T09:23:39;6.10;99.90
20459;DHT22;10388;52.314;7.938;2023-02-01T09:26:09;6.10;99.90
20459;DHT22;10388;52.314;7.938;2023-02-01T09:28:41;6.10;99.90
20459;DHT22;10388;52.314;7.938;2023-02-01T09:31:12;6.10;99.90
20459;DHT22;10388;52.314;7.938;2023-02-01T09:33:43;6.10;99.90
20459;DHT22;10388;52.314;7.938;2023-02-01T09:36:13;6.10;99.90
20459;DHT22;10388;52.314;7.938;2023-02-01T09:38:44;6.10;99.90
20459;DHT22;10388;52.314;7.938;2023-02-01T09:41:30;6.10;99.90
20459;DHT22;10388;52.314;7.938;2023-02-01T09:47:02;6.20;99.90
20459;DHT22;10388;52.314;7.938;2023-02-01T09:49:36;6.20;99.90
20459;DHT22;10388;52.314;7.938;2023-02-01T09:52:13;6.30;99.90
20459;DHT22;10388;52.314;7.938;2023-02-01T09:54:56;6.30;99.90
20459;DHT22;10388;52.314;7.938;2023-02-01T09:57:48;6.40;99.90
20459;DHT22;10388;52.314;7.938;2023-02-01T10:00:26;6.40;99.90
20459;DHT22;10388;52.314;7.938;2023-02-01T10:02:57;6.40;99.90
20459;DHT22;10388;52.314;7.938;2023-02-01T10:08:48;6.40;99.90
20459;DHT22;10388;52.314;7.938;2023-02-01T10:20:27;6.40;99.90
20459;DHT22;10388;52.314;7.938;2023-02-01T10:28:50;6.40;99.90
20459;DHT22;10388;52.314;7.938;2023-02-01T10:31:24;6.40;99.90
20459;DHT22;10388;52.314;7.938;2023-02-01T10:33:57;6.40;99.90
20459;DHT22;10388;52.314;7.938;2023-02-01T10:36:30;6.50;99.90
20459;DHT22;10388;52.314;7.938;2023-02-01T10:39:03;6.50;99.90
20459;DHT22;10388;52.314;7.938;2023-02-01T10:41:39;6.40;99.90
20459;DHT22;10388;52.314;7.938;2023-02-01T10:44:17;6.40;99.90
20459;DHT22;10388;52.314;7.938;2023-02-01T10:46:49;6.40;99.90
20459;DHT22;10388;52.314;7.938;2023-02-01T10:49:26;6.40;99.90
20459;DHT22;10388;52.314;7.938;2023-02-01T10:52:15;6.40;99.90
20459;DHT22;10388;52.314;7.938;2023-02-01T10:54:47;6.40;99.90
20459;DHT22;10388;52.314;7.938;2023-02-01T10:57:25;6.40;99.90
20459;DHT22;10388;52.314;7.938;2023-02-01T11:00:02;6.40;99.90
20459;DHT22;10388;52.314;7.938;2023-02-01T11:02:34;6.40;99.90
20459;DHT22;10388;52.314;7.938;2023-02-01T11:05:09;6.40;99.90
20459;DHT22;10388;52.314;7.938;2023-02-01T11:07:47;6.30;99.90
20459;DHT22;10388;52.314;7.938;2023-02-01T11:10:40;6.30;99.90
20459;DHT22;10388;52.314;7.938;2023-02-01T11:13:17;6.20;99.90
20459;DHT22;10388;52.314;7.938;2023-02-01T11:15:55;6.20;99.90
20459;DHT22;10388;52.314;7.938;2023-02-01T11:18:33;6.10;99.90
20459;DHT22;10388;52.314;7.938;2023-02-01T11:21:07;6.00;99.90
20459;DHT22;10388;52.314;7.938;2023-02-01T11:23:43;6.00;99.90
20459;DHT22;10388;52.314;7.938;2023-02-01T11:26:25;6.00;99.90
20459;DHT22;10388;52.314;7.938;2023-02-01T11:29:04;5.90;99.90
20459;DHT22;10388;52.314;7.938;2023-02-01T11:31:35;5.90;99.90
20459;DHT22;10388;52.314;7.938;2023-02-01T11:34:14;5.90;99.90
20459;DHT22;10388;52.314;7.938;2023-02-01T11:36:47;5.80;99.90
20459;DHT22;10388;52.314;7.938;2023-02-01T11:44:40;5.70;99.90
20459;DHT22;10388;52.314;7.938;2023-02-01T11:47:28;5.60;99.90
20459;DHT22;10388;52.314;7.938;2023-02-01T11:50:01;5.60;99.90
20459;DHT22;10388;52.314;7.938;2023-02-01T11:52:43;5.60;99.90
20459;DHT22;10388;52.314;7.938;2023-02-01T12:01:12;5.60;99.90
20459;DHT22;10388;52.314;7.938;2023-02-01T12:06:56;5.60;99.90
20459;DHT22;10388;52.314;7.938;2023-02-01T12:12:23;5.50;99.90
20459;DHT22;10388;52.314;7.938;2023-02-01T12:30:19;5.40;99.90
20459;DHT22;10388;52.314;7.938;2023-02-01T12:33:07;5.50;99.90
20459;DHT22;10388;52.314;7.938;2023-02-01T12:35:58;5.50;99.90
20459;DHT22;10388;52.314;7.938;2023-02-01T12:38:53;5.50;99.90
20459;DHT22;10388;52.314;7.938;2023-02-01T12:44:08;5.80;99.90
20459;DHT22;10388;52.314;7.938;2023-02-01T12:46:52;5.80;99.90
20459;DHT22;10388;52.314;7.938;2023-02-01T12:52:05;5.80;99.90
20459;DHT22;10388;52.314;7.938;2023-02-01T12:54:45;5.80;99.90
20459;DHT22;10388;52.314;7.938;2023-02-01T12:57:32;5.70;99.90
20459;DHT22;10388;52.314;7.938;2023-02-01T13:00:22;5.70;99.90
20459;DHT22;10388;52.314;7.938;2023-02-01T13:05:59;5.50;99.90
20459;DHT22;10388;52.314;7.938;2023-02-01T13:09:11;5.50;99.90
20459;DHT22;10388;52.314;7.938;2023-02-01T13:11:45;5.50;99.90
20459;DHT22;10388;52.314;7.938;2023-02-01T13:17:04;5.50;99.90
20459;DHT22;10388;52.314;7.938;2023-02-01T13:19:55;5.60;99.90
20459;DHT22;10388;52.314;7.938;2023-02-01T13:22:34;5.60;99.90
20459;DHT22;10388;52.314;7.938;2023-02-01T13:25:46;5.60;99.90
20459;DHT22;10388;52.314;7.938;2023-02-01T13:28:40;5.60;99.90
20459;DHT22;10388;52.314;7.938;2023-02-01T13:37:44;5.60;99.90
20459;DHT22;10388;52.314;7.938;2023-02-01T13:43:02;5.60;99.90
20459;DHT22;10388;52.314;7.938;2023-02-01T13:45:37;5.60;99.90
20459;DHT22;10388;52.314;7.938;2023-02-01T13:48:38;5.60;99.90
20459;DHT22;10388;52.314;7.938;2023-02-01T13:51:10;5.60;99.90
20459;DHT22;10388;52.314;7.938;2023-02-01T13:53:48;5.60;99.90
20459;DHT22;10388;52.314;7.938;2023-02-01T13:56:21;5.60;99.90
20459;DHT22;10388;52.314;7.938;2023-02-01T13:58:53;5.60;99.90
20459;DHT22;10388;52.314;7.938;2023-02-01T14:03:59;5.50;99.90
20459;DHT22;10388;52.314;7.938;2023-02-01T14:19:33;5.20;99.90
20459;DHT22;10388;52.314;7.938;2023-02-01T14:24:57;5.30;99.90
20459;DHT22;10388;52.314;7.938;2023-02-01T14:27:30;5.20;99.90
20459;DHT22;10388;52.314;7.938;2023-02-01T14:30:07;5.30;99.90
20459;DHT22;10388;52.314;7.938;2023-02-01T14:32:42;5.50;99.90
20459;DHT22;10388;52.314;7.938;2023-02-01T14:35:23;5.60;99.90
20459;DHT22;10388;52.314;7.938;2023-02-01T14:38:00;5.70;99.90
20459;DHT22;10388;52.314;7.938;2023-02-01T14:40:33;5.60;99.90
20459;DHT22;10388;52.314;7.938;2023-02-01T14:43:08;5.60;99.90
20459;DHT22;10388;52.314;7.938;2023-02-01T14:50:43;5.70;99.90
20459;DHT22;10388;52.314;7.938;2023-02-01T14:53:20;5.70;99.90
20459;DHT22;10388;52.314;7.938;2023-02-01T14:55:57;5.80;99.90
20459;DHT22;10388;52.314;7.938;2023-02-01T14:58:41;5.80;99.90
20459;DHT22;10388;52.314;7.938;2023-02-01T15:01:32;5.80;99.90
20459;DHT22;10388;52.314;7.938;2023-02-01T15:04:15;5.80;99.90
20459;DHT22;10388;52.314;7.938;2023-02-01T15:06:57;5.80;99.90
20459;DHT22;10388;52.314;7.938;2023-02-01T15:09:34;5.80;99.90
20459;DHT22;10388;52.314;7.938;2023-02-01T15:14:48;5.70;99.90
20459;DHT22;10388;52.314;7.938;2023-02-01T15:19:55;5.70;99.90
20459;DHT22;10388;52.314;7.938;2023-02-01T15:22:27;5.80;99.90
20459;DHT22;10388;52.314;7.938;2023-02-01T15:24:59;5.80;99.90
20459;DHT22;10388;52.314;7.938;2023-02-01T15:27:32;5.80;99.90
20459;DHT22;10388;52.314;7.938;2023-02-01T15:30:18;5.80;99.90
20459;DHT22;10388;52.314;7.938;2023-02-01T15:32:50;5.80;99.90
20459;DHT22;10388;52.314;7.938;2023-02-01T15:35:35;5.80;99.90
20459;DHT22;10388;52.314;7.938;2023-02-01T15:43:39;5.80;99.90
20459;DHT22;10388;52.314;7.938;2023-02-01T15:46:17;5.80;99.90
20459;DHT22;10388;52.314;7.938;2023-02-01T15:48:52;5.80;99.90
20459;DHT22;10388;52.314;7.938;2023-02-01T15:51:26;5.80;99.90
20459;DHT22;10388;52.314;7.938;2023-02-01T15:54:03;5.80;99.90
20459;DHT22;10388;52.314;7.938;2023-02-01T15:56:39;5.90;99.90
20459;DHT22;10388;52.314;7.938;2023-02-01T15:59:16;5.80;99.90
20459;DHT22;10388;52.314;7.938;2023-02-01T16:01:47;5.80;99.90
20459;DHT22;10388;52.314;7.938;2023-02-01T16:04:22;5.80;99.90
20459;DHT22;10388;52.314;7.938;2023-02-01T16:06:54;5.70;99.90
20459;DHT22;10388;52.314;7.938;2023-02-01T16:09:39;5.70;99.90
20459;DHT22;10388;52.314;7.938;2023-02-01T16:12:31;5.70;99.90
20459;DHT22;10388;52.314;7.938;2023-02-01T16:15:05;5.70;99.90
20459;DHT22;10388;52.314;7.938;2023-02-01T16:17:36;5.70;99.90
20459;DHT22;10388;52.314;7.938;2023-02-01T16:20:07;5.70;99.90
20459;DHT22;10388;52.314;7.938;2023-02-01T16:22:37;5.70;99.90
20459;DHT22;10388;52.314;7.938;2023-02-01T16:25:08;5.70;99.90
20459;DHT22;10388;52.314;7.938;2023-02-01T16:27:39;5.70;99.90
20459;DHT22;10388;52.314;7.938;2023-02-01T16:30:10;5.70;99.90
20459;DHT22;10388;52.314;7.938;2023-02-01T16:32:41;5.60;99.90
20459;DHT22;10388;52.314;7.938;2023-02-01T16:35:34;5.60;99.90
20459;DHT22;10388;52.314;7.938;2023-02-01T16:38:11;5.70;99.90
20459;DHT22;10388;52.314;7.938;2023-02-01T16:40:43;5.60;99.90
20459;DHT22;10388;52.314;7.938;2023-02-01T16:43:19;5.40;99.90
20459;DHT22;10388;52.314;7.938;2023-02-01T16:45:52;5.40;99.90
20459;DHT22;10388;52.314;7.938;2023-02-01T16:48:31;5.40;99.90
20459;DHT22;10388;52.314;7.938;2023-02-01T16:51:09;5.30;99.90
20459;DHT22;10388;52.314;7.938;2023-02-01T16:53:40;5.30;99.90
20459;DHT22;10388;52.314;7.938;2023-02-01T16:56:21;5.40;99.90
20459;DHT22;10388;52.314;7.938;2023-02-01T16:58:53;5.40;99.90
20459;DHT22;10388;52.314;7.938;2023-02-01T17:01:25;5.60;99.90
20459;DHT22;10388;52.314;7.938;2023-02-01T17:03:55;5.50;99.90
20459;DHT22;10388;52.314;7.938;2023-02-01T17:06:26;5.40;99.90
20459;DHT22;10388;52.314;7.938;2023-02-01T17:09:00;5.40;99.90
20459;DHT22;10388;52.314;7.938;2023-02-01T17:11:33;5.30;99.90
20459;DHT22;10388;52.314;7.938;2023-02-01T17:14:15;5.30;99.90
20459;DHT22;10388;52.314;7.938;2023-02-01T17:16:47;5.30;99.90
20459;DHT22;10388;52.314;7.938;2023-02-01T17:19:21;5.20;99.90
20459;DHT22;10388;52.314;7.938;2023-02-01T17:21:54;5.30;99.90
20459;DHT22;10388;52.314;7.938;2023-02-01T17:24:28;5.30;99.90
20459;DHT22;10388;52.314;7.938;2023-02-01T17:26:59;5.20;99.90
20459;DHT22;10388;52.314;7.938;2023-02-01T17:29:30;5.40;99.90
20459;DHT22;10388;52.314;7.938;2023-02-01T17:32:01;5.40;99.90
20459;DHT22;10388;52.314;7.938;2023-02-01T17:34:32;5.40;99.90
20459;DHT22;10388;52.314;7.938;2023-02-01T17:37:05;5.40;99.90
20459;DHT22;10388;52.314;7.938;2023-02-01T17:39:36;5.40;99.90
20459;DHT22;10388;52.314;7.938;2023-02-01T17:42:27;5.40;99.90
20459;DHT22;10388;52.314;7.938;2023-02-01T17:45:00;5.40;99.90
20459;DHT22;10388;52.314;7.938;2023-02-01T17:47:31;5.40;99.90
20459;DHT22;10388;52.314;7.938;2023-02-01T17:50:03;5.40;99.90
20459;DHT22;10388;52.314;7.938;2023-02-01T17:52:34;5.40;99.90
20459;DHT22;10388;52.314;7.938;2023-02-01T17:55:18;5.40;99.90
20459;DHT22;10388;52.314;7.938;2023-02-01T17:57:51;5.50;99.90
20459;DHT22;10388;52.314;7.938;2023-02-01T18:00:22;5.60;99.90
20459;DHT22;10388;52.314;7.938;2023-02-01T18:02:52;5.70;99.90
20459;DHT22;10388;52.314;7.938;2023-02-01T18:05:27;5.60;99.90
20459;DHT22;10388;52.314;7.938;2023-02-01T18:07:58;5.70;99.90
20459;DHT22;10388;52.314;7.938;2023-02-01T18:10:29;5.60;99.90
20459;DHT22;10388;52.314;7.938;2023-02-01T18:13:01;5.60;99.90
20459;DHT22;10388;52.314;7.938;2023-02-01T18:15:31;5.60;99.90
20459;DHT22;10388;52.314;7.938;2023-02-01T18:18:02;5.60;99.90
20459;DHT22;10388;52.314;7.938;2023-02-01T18:20:33;5.60;99.90
20459;DHT22;10388;52.314;7.938;2023-02-01T18:23:05;5.60;99.90
20459;DHT22;10388;52.314;7.938;2023-02-01T18:25:36;5.50;99.90
20459;DHT22;10388;52.314;7.938;2023-02-01T18:28:07;5.50;99.90
20459;DHT22;10388;52.314;7.938;2023-02-01T18:30:38;5.40;99.90
20459;DHT22;10388;52.314;7.938;2023-02-01T18:33:14;5.30;99.90
20459;DHT22;10388;52.314;7.938;2023-02-01T18:35:45;5.40;99.90
20459;DHT22;10388;52.314;7.938;2023-02-01T18:38:16;5.20;99.90
20459;DHT22;10388;52.314;7.938;2023-02-01T18:40:51;5.20;99.90
20459;DHT22;10388;52.314;7.938;2023-02-01T18:43:22;5.30;99.90
20459;DHT22;10388;52.314;7.938;2023-02-01T18:45:53;5.30;99.90
20459;DHT22;10388;52.314;7.938;2023-02-01T18:48:24;5.20;99.90
20459;DHT22;10388;52.314;7.938;2023-02-01T18:50:55;5.30;99.90
20459;DHT22;10388;52.314;7.938;2023-02-01T18:53:27;5.30;99.90
20459;DHT22;10388;52.314;7.938;2023-02-01T18:55:58;5.30;99.90
20459;DHT22;10388;52.314;7.938;2023-02-01T18:58:28;5.30;99.90
20459;DHT22;10388;52.314;7.938;2023-02-01T19:01:08;5.30;99.90
20459;DHT22;10388;52.314;7.938;2023-02-01T19:03:41;5.40;99.90
20459;DHT22;10388;52.314;7.938;2023-02-01T19:06:12;5.30;99.90
20459;DHT22;10388;52.314;7.938;2023-02-01T19:08:46;5.40;99.90
20459;DHT22;10388;52.314;7.938;2023-02-01T19:11:17;5.30;99.90
20459;DHT22;10388;52.314;7.938;2023-02-01T19:13:49;5.40;99.90
20459;DHT22;10388;52.314;7.938;2023-02-01T19:16:20;5.40;99.90
20459;DHT22;10388;52.314;7.938;2023-02-01T19:18:51;5.30;99.90
20459;DHT22;10388;52.314;7.938;2023-02-01T19:21:22;5.30;99.90
20459;DHT22;10388;52.314;7.938;2023-02-01T19:23:53;5.30;99.90
20459;DHT22;10388;52.314;7.938;2023-02-01T19:26:23;5.20;99.90
20459;DHT22;10388;52.314;7.938;2023-02-01T19:28:57;5.20;99.90
20459;DHT22;10388;52.314;7.938;2023-02-01T19:31:27;5.30;99.90
20459;DHT22;10388;52.314;7.938;2023-02-01T19:33:58;5.20;99.90
20459;DHT22;10388;52.314;7.938;2023-02-01T19:36:28;5.20;99.90
20459;DHT22;10388;52.314;7.938;2023-02-01T19:38:59;5.20;99.90
20459;DHT22;10388;52.314;7.938;2023-02-01T19:41:29;5.20;99.90
20459;DHT22;10388;52.314;7.938;2023-02-01T19:44:00;5.20;99.90
20459;DHT22;10388;52.314;7.938;2023-02-01T19:46:30;5.10;99.90
20459;DHT22;10388;52.314;7.938;2023-02-01T19:49:01;5.20;99.90
20459;DHT22;10388;52.314;7.938;2023-02-01T19:51:31;5.20;99.90
20459;DHT22;10388;52.314;7.938;2023-02-01T19:54:02;5.20;99.90
20459;DHT22;10388;52.314;7.938;2023-02-01T19:56:33;5.20;99.90
20459;DHT22;10388;52.314;7.938;2023-02-01T19:59:03;5.10;99.90
20459;DHT22;10388;52.314;7.938;2023-02-01T20:01:34;5.00;99.90
20459;DHT22;10388;52.314;7.938;2023-02-01T20:04:07;5.10;99.90
20459;DHT22;10388;52.314;7.938;2023-02-01T20:06:39;5.00;99.90
20459;DHT22;10388;52.314;7.938;2023-02-01T20:09:19;4.90;99.90
20459;DHT22;10388;52.314;7.938;2023-02-01T20:11:50;4.90;99.90
20459;DHT22;10388;52.314;7.938;2023-02-01T20:14:23;4.90;99.90
20459;DHT22;10388;52.314;7.938;2023-02-01T20:16:54;4.90;99.90
20459;DHT22;10388;52.314;7.938;2023-02-01T20:19:25;5.00;99.90
20459;DHT22;10388;52.314;7.938;2023-02-01T20:21:56;4.90;99.90
20459;DHT22;10388;52.314;7.938;2023-02-01T20:24:27;4.90;99.90
20459;DHT22;10388;52.314;7.938;2023-02-01T20:26:57;4.90;99.90
20459;DHT22;10388;52.314;7.938;2023-02-01T20:29:28;4.80;99.90
20459;DHT22;10388;52.314;7.938;2023-02-01T20:31:58;4.70;99.90
20459;DHT22;10388;52.314;7.938;2023-02-01T20:34:29;4.70;99.90
20459;DHT22;10388;52.314;7.938;2023-02-01T20:37:00;4.70;99.90
20459;DHT22;10388;52.314;7.938;2023-02-01T20:39:30;4.80;99.90
20459;DHT22;10388;52.314;7.938;2023-02-01T20:42:01;4.70;99.90
20459;DHT22;10388;52.314;7.938;2023-02-01T20:44:31;4.80;99.90
20459;DHT22;10388;52.314;7.938;2023-02-01T20:47:02;4.70;99.90
20459;DHT22;10388;52.314;7.938;2023-02-01T20:49:34;4.70;99.90
20459;DHT22;10388;52.314;7.938;2023-02-01T20:52:05;4.70;99.90
20459;DHT22;10388;52.314;7.938;2023-02-01T20:54:35;4.70;99.90
20459;DHT22;10388;52.314;7.938;2023-02-01T20:57:07;4.70;99.90
20459;DHT22;10388;52.314;7.938;2023-02-01T20:59:38;4.70;99.90
20459;DHT22;10388;52.314;7.938;2023-02-01T21:02:09;4.70;99.90
20459;DHT22;10388;52.314;7.938;2023-02-01T21:04:40;4.80;99.90
20459;DHT22;10388;52.314;7.938;2023-02-01T21:07:10;4.70;99.90
20459;DHT22;10388;52.314;7.938;2023-02-01T21:09:41;4.70;99.90
20459;DHT22;10388;52.314;7.938;2023-02-01T21:12:12;4.70;99.90
20459;DHT22;10388;52.314;7.938;2023-02-01T21:14:43;4.70;99.90
20459;DHT22;10388;52.314;7.938;2023-02-01T21:17:13;4.70;99.90
20459;DHT22;10388;52.314;7.938;2023-02-01T21:19:44;4.70;99.90
20459;DHT22;10388;52.314;7.938;2023-02-01T21:22:14;4.70;99.90
20459;DHT22;10388;52.314;7.938;2023-02-01T21:24:45;4.80;99.90
20459;DHT22;10388;52.314;7.938;2023-02-01T21:27:16;4.70;99.90
20459;DHT22;10388;52.314;7.938;2023-02-01T21:29:46;4.70;99.90
20459;DHT22;10388;52.314;7.938;2023-02-01T21:32:17;4.60;99.90
20459;DHT22;10388;52.314;7.938;2023-02-01T21:34:47;4.60;99.90
20459;DHT22;10388;52.314;7.938;2023-02-01T21:37:19;4.60;99.90
20459;DHT22;10388;52.314;7.938;2023-02-01T21:39:54;4.60;99.90
20459;DHT22;10388;52.314;7.938;2023-02-01T21:42:28;4.60;99.90